Time;durP1;ratioP1;P1;durP2;ratioP2;P2;SDS_P1;SDS_P2;PMS_P1;PMS_P2;Temp;Humidity;BMP_temperature;BMP_pressure;BME280_temperature;BME280_humidity;BME280_pressure;Samples;Min_cycle;Max_cycle;Signal;HPM_P1;HPM_P2
2023/08/29 00:00:03;;;;;;;5.68;2.13;;;21.20;94.30;;;;;;5115685;28;20429;-76
2023/08/29 00:02:32;;;;;;;4.85;2.38;;;21.30;94.30;;;;;;5097121;28;20044;-75
2023/08/29 00:04:58;;;;;;;5.72;2.03;;;21.20;94.20;;;;;;5115585;28;20051;-76
2023/08/29 00:07:24;;;;;;;5.60;2.03;;;21.20;94.30;;;;;;5115823;28;20121;-76
2023/08/29 00:09:49;;;;;;;4.35;2.10;;;21.20;94.30;;;;;;5115755;28;20051;-76
2023/08/29 00:12:15;;;;;;;5.80;2.67;;;21.20;94.40;;;;;;5115481;28;20036;-76
2023/08/29 00:14:41;;;;;;;7.35;2.05;;;21.10;94.20;;;;;;5115402;28;20027;-76
2023/08/29 00:17:07;;;;;;;5.88;2.10;;;21.20;94.20;;;;;;5115253;28;20407;-76
2023/08/29 00:19:33;;;;;;;4.60;1.95;;;21.20;94.10;;;;;;5115524;28;20490;-76
2023/08/29 00:21:59;;;;;;;6.18;2.08;;;21.10;93.80;;;;;;5115401;28;20539;-76
2023/08/29 00:24:27;;;;;;;4.80;2.03;;;21.10;93.90;;;;;;5097163;28;20058;-76
2023/08/29 00:26:53;;;;;;;7.80;2.17;;;21.10;93.90;;;;;;5114978;28;20061;-76
2023/08/29 00:29:19;;;;;;;3.10;1.80;;;21.10;93.90;;;;;;5115354;28;20027;-76
2023/08/29 00:31:44;;;;;;;6.95;1.90;;;21.00;93.80;;;;;;5115325;28;20031;-76
2023/08/29 00:34:10;;;;;;;4.72;1.88;;;21.00;93.90;;;;;;5115239;28;20032;-76
2023/08/29 00:36:36;;;;;;;3.60;1.77;;;21.00;93.90;;;;;;5115341;28;20035;-75
2023/08/29 00:39:03;;;;;;;3.42;1.70;;;21.00;93.90;;;;;;5115069;28;20470;-76
2023/08/29 00:41:29;;;;;;;6.57;1.83;;;21.00;94.00;;;;;;5114831;28;20036;-75
2023/08/29 00:43:56;;;;;;;4.80;1.80;;;21.00;94.00;;;;;;5115161;28;20487;-76
2023/08/29 00:46:23;;;;;;;6.00;2.10;;;20.90;94.00;;;;;;5096440;28;20110;-76
2023/08/29 00:48:49;;;;;;;5.15;2.08;;;20.90;94.00;;;;;;5096554;28;20031;-76
2023/08/29 00:51:16;;;;;;;7.82;1.73;;;21.00;94.10;;;;;;5114890;28;20067;-76
2023/08/29 00:53:42;;;;;;;4.93;2.10;;;20.90;94.00;;;;;;5115136;28;20542;-76
2023/08/29 00:56:09;;;;;;;7.38;2.03;;;20.90;94.00;;;;;;5096317;28;20127;-76
2023/08/29 00:58:36;;;;;;;3.92;1.63;;;20.90;93.80;;;;;;5112848;28;20135;-76
2023/08/29 01:01:02;;;;;;;4.68;1.63;;;20.90;93.60;;;;;;5093579;28;20043;-76
2023/08/29 01:03:28;;;;;;;3.83;1.80;;;20.90;93.50;;;;;;5111787;28;20040;-76
2023/08/29 01:05:54;;;;;;;6.32;2.00;;;20.90;93.40;;;;;;5114144;28;20038;-76
2023/08/29 01:08:20;;;;;;;3.50;1.77;;;20.80;93.30;;;;;;5114637;28;20031;-76
2023/08/29 01:11:20;;;;;;;6.00;1.77;;;20.90;93.30;;;;;;5114614;28;20035;-76
2023/08/29 01:14:09;;;;;;;3.80;1.73;;;20.90;93.20;;;;;;5114123;28;20049;-75
2023/08/29 01:16:40;;;;;;;4.07;1.60;;;20.80;93.30;;;;;;5114393;28;20035;-76
2023/08/29 01:19:13;;;;;;;4.45;1.80;;;20.80;93.30;;;;;;5114272;28;20063;-76
2023/08/29 01:22:18;;;;;;;5.70;2.00;;;20.80;93.30;;;;;;5095018;28;20128;-76
2023/08/29 01:24:46;;;;;;;5.63;1.85;;;20.80;93.30;;;;;;5113939;28;20479;-76
2023/08/29 01:27:13;;;;;;;5.95;1.88;;;20.70;93.30;;;;;;5095562;28;20081;-76
2023/08/29 01:29:40;;;;;;;6.53;1.80;;;20.80;93.40;;;;;;5113742;28;20043;-76
2023/08/29 01:32:06;;;;;;;7.25;1.67;;;20.70;93.40;;;;;;5113382;28;20483;-76
2023/08/29 01:34:32;;;;;;;3.55;1.83;;;20.70;93.40;;;;;;5113805;28;20424;-76
2023/08/29 01:36:58;;;;;;;5.03;1.58;;;20.70;93.30;;;;;;5113784;28;20067;-76
2023/08/29 01:39:24;;;;;;;5.90;1.50;;;20.70;93.20;;;;;;5113649;28;20066;-76
2023/08/29 01:41:51;;;;;;;3.70;1.70;;;20.60;92.60;;;;;;5113678;28;20475;-76
2023/08/29 01:44:16;;;;;;;3.30;1.52;;;20.60;92.60;;;;;;5113883;28;20032;-76
2023/08/29 01:46:42;;;;;;;9.80;1.50;;;20.60;92.50;;;;;;5113784;28;20034;-76
2023/08/29 01:49:08;;;;;;;4.05;1.70;;;20.60;92.40;;;;;;5095501;28;20042;-76
2023/08/29 01:51:34;;;;;;;3.15;1.73;;;20.60;92.40;;;;;;5095298;28;20140;-76
2023/08/29 01:54:00;;;;;;;4.70;1.80;;;20.60;92.30;;;;;;5095345;28;20491;-76
2023/08/29 01:56:28;;;;;;;4.55;1.48;;;20.50;92.10;;;;;;5095507;28;20046;-76
2023/08/29 01:58:56;;;;;;;6.93;1.75;;;20.50;92.20;;;;;;5113998;28;20105;-75
2023/08/29 02:01:22;;;;;;;4.60;1.70;;;20.50;92.20;;;;;;5112988;28;20067;-75
2023/08/29 02:03:48;;;;;;;4.28;1.70;;;20.50;92.30;;;;;;5095410;28;20077;-75
2023/08/29 02:06:14;;;;;;;3.60;1.83;;;20.50;92.50;;;;;;5113367;28;20035;-75
2023/08/29 02:08:41;;;;;;;6.20;1.70;;;20.50;92.70;;;;;;5095263;28;20031;-75
2023/08/29 02:11:07;;;;;;;5.65;1.88;;;20.50;92.80;;;;;;5113332;28;20028;-75
2023/08/29 02:13:33;;;;;;;3.83;1.80;;;20.50;92.90;;;;;;5113333;28;20035;-75
2023/08/29 02:16:02;;;;;;;3.83;1.45;;;20.40;92.90;;;;;;5113326;28;20031;-75
2023/08/29 02:18:28;;;;;;;3.17;1.85;;;20.40;92.90;;;;;;5113470;28;20038;-75
2023/08/29 02:20:54;;;;;;;5.03;2.22;;;20.40;92.90;;;;;;5113332;28;20387;-75
2023/08/29 02:23:20;;;;;;;2.78;1.83;;;20.40;92.90;;;;;;5113306;28;20051;-76
2023/08/29 02:25:46;;;;;;;3.53;1.58;;;20.40;92.80;;;;;;5113231;28;20031;-76
2023/08/29 02:28:13;;;;;;;7.95;1.90;;;20.40;92.80;;;;;;5094705;28;20036;-75
2023/08/29 02:30:38;;;;;;;3.72;1.60;;;20.40;92.80;;;;;;5094850;28;20501;-76
2023/08/29 02:33:04;;;;;;;3.15;1.50;;;20.40;92.70;;;;;;5112988;28;20032;-75
2023/08/29 02:35:30;;;;;;;5.93;1.67;;;20.30;92.80;;;;;;5113405;28;20111;-75
2023/08/29 02:37:56;;;;;;;4.95;1.45;;;20.30;92.90;;;;;;5113309;28;20043;-75
2023/08/29 02:40:22;;;;;;;3.22;1.52;;;20.30;93.00;;;;;;5091227;28;20123;-75
2023/08/29 02:42:48;;;;;;;2.88;1.73;;;20.30;92.90;;;;;;5093187;28;20373;-76
2023/08/29 02:45:13;;;;;;;4.55;1.77;;;20.30;93.30;;;;;;5113105;28;20035;-76
2023/08/29 02:47:39;;;;;;;4.97;1.60;;;20.30;93.00;;;;;;5113206;28;20036;-75
2023/08/29 02:50:06;;;;;;;8.25;2.20;;;20.30;93.30;;;;;;5094780;28;20039;-76
2023/08/29 02:52:32;;;;;;;3.75;1.70;;;20.20;93.00;;;;;;5113105;28;20081;-76
2023/08/29 02:54:58;;;;;;;5.32;2.08;;;20.20;93.00;;;;;;5112861;28;20421;-76
2023/08/29 02:57:24;;;;;;;5.28;2.45;;;20.20;93.10;;;;;;5112855;28;20048;-76
2023/08/29 02:59:49;;;;;;;2.70;1.58;;;20.20;93.20;;;;;;5112928;28;20049;-76
2023/08/29 03:02:15;;;;;;;5.82;1.90;;;20.20;93.20;;;;;;5112649;28;20096;-75
2023/08/29 03:04:42;;;;;;;4.85;1.67;;;20.20;93.20;;;;;;5113003;28;20497;-76
2023/08/29 03:07:08;;;;;;;4.45;1.60;;;20.20;93.20;;;;;;5112662;28;20031;-75
2023/08/29 03:09:33;;;;;;;4.90;1.50;;;20.20;93.20;;;;;;5094537;28;20072;-76
2023/08/29 03:11:59;;;;;;;5.20;1.73;;;20.20;93.10;;;;;;5115149;28;20043;-76
2023/08/29 03:14:26;;;;;;;5.85;1.80;;;20.10;93.20;;;;;;5098518;28;20036;-76
2023/08/29 03:16:52;;;;;;;9.70;2.03;;;20.10;93.20;;;;;;5116702;28;20036;-75
2023/08/29 03:19:18;;;;;;;6.68;1.92;;;20.10;93.20;;;;;;5116773;28;20028;-76
2023/08/29 03:21:44;;;;;;;5.50;1.88;;;20.10;93.10;;;;;;5116328;28;20036;-75
2023/08/29 03:24:09;;;;;;;3.45;1.67;;;20.10;93.30;;;;;;5116678;28;20067;-76
2023/08/29 03:26:35;;;;;;;7.10;1.88;;;20.10;93.40;;;;;;5116620;28;20042;-76
2023/08/29 03:29:01;;;;;;;4.75;1.80;;;20.00;93.50;;;;;;5116296;28;20089;-76
2023/08/29 03:31:27;;;;;;;4.10;1.90;;;20.00;93.50;;;;;;5116278;28;20035;-76
2023/08/29 03:33:53;;;;;;;4.88;1.67;;;20.00;93.50;;;;;;5116570;28;20034;-76
2023/08/29 03:36:19;;;;;;;3.20;1.70;;;20.00;93.50;;;;;;5116490;28;20368;-76
2023/08/29 03:38:45;;;;;;;4.18;2.00;;;20.00;93.50;;;;;;5116044;28;20034;-76
2023/08/29 03:41:11;;;;;;;3.15;1.65;;;20.00;93.50;;;;;;5115666;28;20031;-76
2023/08/29 03:43:37;;;;;;;3.83;1.75;;;20.00;93.40;;;;;;5115941;28;20070;-76
2023/08/29 03:46:03;;;;;;;6.63;1.80;;;20.00;93.40;;;;;;5098036;28;20105;-75
2023/08/29 03:48:32;;;;;;;7.53;1.90;;;19.90;93.40;;;;;;5097771;28;20076;-75
2023/08/29 03:50:58;;;;;;;8.00;1.50;;;19.90;93.50;;;;;;5116156;28;20028;-75
2023/08/29 03:53:24;;;;;;;5.95;2.00;;;19.90;93.50;;;;;;5115679;28;20088;-76
2023/08/29 03:55:50;;;;;;;7.97;2.00;;;20.00;93.40;;;;;;5116044;28;20032;-76
2023/08/29 03:58:16;;;;;;;4.43;1.90;;;19.90;93.30;;;;;;5115829;28;20593;-76
2023/08/29 04:00:43;;;;;;;8.10;1.98;;;19.90;93.40;;;;;;5115919;28;20104;-76
2023/08/29 04:03:09;;;;;;;3.67;1.90;;;19.90;93.60;;;;;;5115976;28;20078;-75
2023/08/29 04:05:36;;;;;;;3.97;1.92;;;19.90;93.60;;;;;;5115550;28;20055;-75
2023/08/29 04:08:04;;;;;;;6.18;1.98;;;19.80;93.60;;;;;;5115387;28;20051;-76
2023/08/29 04:10:35;;;;;;;3.80;1.88;;;19.80;93.70;;;;;;5115670;28;20024;-76
2023/08/29 04:13:01;;;;;;;9.10;2.13;;;19.80;93.80;;;;;;5115714;28;20080;-76
2023/08/29 04:15:26;;;;;;;6.70;1.95;;;19.80;93.80;;;;;;5115717;28;20159;-76
2023/08/29 04:17:52;;;;;;;8.38;2.15;;;19.80;93.80;;;;;;5115707;28;20032;-76
2023/08/29 04:20:18;;;;;;;6.55;1.65;;;19.80;93.90;;;;;;5096842;28;20085;-76
2023/08/29 04:22:45;;;;;;;3.58;1.55;;;19.80;93.90;;;;;;5114472;28;20071;-76
2023/08/29 04:25:11;;;;;;;5.18;1.67;;;19.70;93.80;;;;;;5115135;28;20032;-76
2023/08/29 04:27:38;;;;;;;5.15;1.90;;;19.70;93.70;;;;;;5115251;28;20035;-76
2023/08/29 04:30:04;;;;;;;4.93;1.92;;;19.70;93.70;;;;;;5114898;28;20035;-75
2023/08/29 04:32:36;;;;;;;3.58;1.60;;;19.70;93.70;;;;;;5115046;28;20039;-76
2023/08/29 04:35:06;;;;;;;6.30;1.88;;;19.70;93.70;;;;;;5114205;28;20505;-76
2023/08/29 04:37:35;;;;;;;4.38;1.80;;;19.70;93.80;;;;;;5114840;28;20031;-76
2023/08/29 04:40:06;;;;;;;11.93;1.77;;;19.70;93.80;;;;;;5114492;28;21036;-76
2023/08/29 04:42:32;;;;;;;6.20;1.75;;;19.70;93.90;;;;;;5115017;28;20046;-77
2023/08/29 04:44:58;;;;;;;6.10;1.98;;;19.60;94.00;;;;;;5114928;28;20521;-76
2023/08/29 04:47:24;;;;;;;4.45;2.13;;;19.60;94.10;;;;;;5114887;28;20035;-76
2023/08/29 04:49:49;;;;;;;5.13;2.00;;;19.60;94.10;;;;;;5114929;28;20024;-76
2023/08/29 04:52:15;;;;;;;4.10;1.90;;;19.60;94.10;;;;;;5115035;28;20044;-76
2023/08/29 04:54:41;;;;;;;3.20;1.80;;;19.60;94.10;;;;;;5114813;28;20077;-76
2023/08/29 04:57:07;;;;;;;6.40;2.10;;;19.60;94.10;;;;;;5112979;28;20031;-77
2023/08/29 04:59:32;;;;;;;6.30;1.85;;;19.60;94.20;;;;;;5112690;28;20059;-76
2023/08/29 05:01:58;;;;;;;7.13;2.08;;;19.60;94.20;;;;;;5112785;28;20134;-76
2023/08/29 05:04:24;;;;;;;7.88;2.10;;;19.70;94.30;;;;;;5113681;28;20028;-76
2023/08/29 05:06:50;;;;;;;5.70;2.10;;;19.60;94.50;;;;;;5113741;28;20039;-76
2023/08/29 05:09:16;;;;;;;14.77;2.10;;;19.60;94.30;;;;;;5113471;28;20059;-76
2023/08/29 05:11:41;;;;;;;12.57;2.38;;;19.60;94.40;;;;;;5114213;28;20038;-76
2023/08/29 05:14:07;;;;;;;6.05;2.70;;;19.60;94.50;;;;;;5114340;28;20039;-76
2023/08/29 05:16:33;;;;;;;8.88;3.15;;;19.60;94.50;;;;;;5114631;28;20027;-76
2023/08/29 05:18:59;;;;;;;10.80;2.95;;;19.60;94.40;;;;;;5114528;28;20444;-76
2023/08/29 05:21:25;;;;;;;6.40;2.58;;;19.70;94.40;;;;;;5114380;28;20400;-76
2023/08/29 05:23:51;;;;;;;5.85;2.63;;;19.70;94.50;;;;;;5114505;28;20050;-76
2023/08/29 05:26:17;;;;;;;12.27;2.83;;;19.70;94.50;;;;;;5114474;28;20032;-76
2023/08/29 05:28:42;;;;;;;4.00;2.45;;;19.70;94.50;;;;;;5114412;28;20042;-76
2023/08/29 05:31:08;;;;;;;5.72;2.67;;;19.70;94.50;;;;;;5114304;28;20082;-77
2023/08/29 05:33:34;;;;;;;6.43;2.65;;;19.70;94.60;;;;;;5114360;28;20036;-77
2023/08/29 05:36:00;;;;;;;8.75;2.60;;;19.70;94.60;;;;;;5113362;28;20372;-76
2023/08/29 05:38:27;;;;;;;6.72;2.40;;;19.70;94.60;;;;;;5114236;28;20040;-76
2023/08/29 05:40:53;;;;;;;8.82;2.40;;;19.70;94.50;;;;;;5113910;28;20391;-76
2023/08/29 05:43:20;;;;;;;5.13;2.33;;;19.70;94.50;;;;;;5113813;28;20137;-76
2023/08/29 05:45:45;;;;;;;5.15;2.67;;;19.80;94.60;;;;;;5114024;28;20032;-76
2023/08/29 05:48:11;;;;;;;5.72;2.40;;;19.80;94.60;;;;;;5113937;28;20035;-76
2023/08/29 05:50:40;;;;;;;6.30;2.83;;;19.80;94.60;;;;;;5113778;28;20383;-77
2023/08/29 05:53:06;;;;;;;5.75;2.40;;;19.80;94.60;;;;;;5113768;28;20027;-77
2023/08/29 05:55:33;;;;;;;3.85;2.10;;;19.80;94.60;;;;;;5114081;28;20038;-77
2023/08/29 05:57:59;;;;;;;3.97;2.10;;;19.80;94.70;;;;;;5113962;28;20042;-76
2023/08/29 06:00:25;;;;;;;5.68;2.25;;;19.80;94.70;;;;;;5113226;28;20035;-75
2023/08/29 06:02:54;;;;;;;7.10;2.50;;;19.80;94.80;;;;;;5112983;28;20040;-75
2023/08/29 06:05:20;;;;;;;5.80;2.45;;;19.80;95.10;;;;;;5113529;28;20471;-75
2023/08/29 06:07:46;;;;;;;6.05;2.20;;;19.90;94.90;;;;;;5113544;28;20035;-75
2023/08/29 06:10:12;;;;;;;8.57;2.30;;;19.90;95.00;;;;;;5112994;28;20035;-76
2023/08/29 06:12:38;;;;;;;5.32;2.70;;;19.90;94.90;;;;;;5112319;28;20043;-75
2023/08/29 06:15:05;;;;;;;7.22;2.30;;;19.90;94.90;;;;;;5113207;28;20111;-75
2023/08/29 06:17:30;;;;;;;4.65;2.33;;;19.90;94.90;;;;;;5113116;28;20035;-76
2023/08/29 06:19:56;;;;;;;6.60;2.30;;;19.90;94.80;;;;;;5113563;28;20054;-75
2023/08/29 06:22:22;;;;;;;6.57;2.30;;;19.90;94.80;;;;;;5112728;28;20062;-74
2023/08/29 06:24:48;;;;;;;11.23;2.63;;;19.90;94.80;;;;;;5112925;28;20023;-75
2023/08/29 06:27:14;;;;;;;15.10;3.10;;;19.90;94.80;;;;;;5112808;28;20074;-74
2023/08/29 06:29:40;;;;;;;15.23;3.20;;;19.90;94.80;;;;;;5094485;28;20036;-75
2023/08/29 06:32:06;;;;;;;20.85;3.42;;;19.90;94.70;;;;;;5112873;28;20119;-75
2023/08/29 06:34:31;;;;;;;17.25;3.65;;;19.90;94.70;;;;;;5113246;28;20028;-75
2023/08/29 06:36:57;;;;;;;27.77;4.97;;;19.90;94.70;;;;;;5112889;28;20028;-75
2023/08/29 06:39:23;;;;;;;25.20;4.60;;;19.90;94.70;;;;;;5112778;28;20043;-76
2023/08/29 06:41:48;;;;;;;27.08;4.80;;;19.90;94.90;;;;;;5094714;28;20036;-76
2023/08/29 06:44:14;;;;;;;28.50;4.13;;;19.90;95.00;;;;;;5112953;28;20038;-77
2023/08/29 06:46:40;;;;;;;15.52;4.03;;;20.00;95.00;;;;;;5096416;28;20038;-76
2023/08/29 06:49:07;;;;;;;16.90;2.95;;;20.00;95.00;;;;;;5117407;28;20039;-76
2023/08/29 06:51:34;;;;;;;17.30;3.03;;;20.00;95.30;;;;;;5117398;28;20038;-77
2023/08/29 06:54:00;;;;;;;12.50;2.70;;;20.00;95.00;;;;;;5116926;28;20032;-76
2023/08/29 06:56:25;;;;;;;10.98;2.92;;;20.00;95.00;;;;;;5117175;28;20036;-78
2023/08/29 06:58:51;;;;;;;11.70;3.58;;;20.00;94.90;;;;;;5117159;28;20038;-75
2023/08/29 07:01:17;;;;;;;11.10;2.67;;;20.00;94.80;;;;;;5116788;28;20042;-76
2023/08/29 07:03:43;;;;;;;10.00;3.40;;;20.10;94.90;;;;;;5116763;28;20032;-77
2023/08/29 07:06:08;;;;;;;7.20;2.60;;;20.10;95.00;;;;;;5116263;28;20551;-76
2023/08/29 07:08:34;;;;;;;10.65;2.92;;;20.10;95.00;;;;;;5116386;28;20062;-75
2023/08/29 07:11:00;;;;;;;6.97;2.20;;;20.10;94.90;;;;;;5116558;28;20024;-77
2023/08/29 07:13:25;;;;;;;11.25;2.70;;;20.20;94.90;;;;;;5098184;28;20043;-76
2023/08/29 07:15:51;;;;;;;6.47;2.42;;;20.20;94.80;;;;;;5116928;28;20027;-76
2023/08/29 07:18:17;;;;;;;7.05;2.15;;;20.20;94.70;;;;;;5115832;28;20024;-77
2023/08/29 07:20:44;;;;;;;9.35;2.28;;;20.20;94.50;;;;;;5114100;28;20115;-76
2023/08/29 07:23:10;;;;;;;7.75;2.38;;;20.30;94.30;;;;;;5113986;28;20036;-77
2023/08/29 07:25:38;;;;;;;13.05;4.38;;;20.30;94.40;;;;;;5114490;28;20038;-77
2023/08/29 07:28:05;;;;;;;4.25;2.30;;;20.30;94.50;;;;;;5129354;28;20047;-76
2023/08/29 07:30:31;;;;;;;4.78;2.20;;;20.30;94.50;;;;;;5129777;28;20032;-77
2023/08/29 07:32:57;;;;;;;5.13;2.15;;;20.30;94.60;;;;;;5114562;28;20027;-77
2023/08/29 07:35:23;;;;;;;6.20;2.42;;;20.30;94.50;;;;;;5123257;28;20024;-76
2023/08/29 07:37:51;;;;;;;8.75;2.83;;;20.30;94.40;;;;;;5118140;28;20036;-76
2023/08/29 07:40:16;;;;;;;3.67;2.28;;;20.40;94.40;;;;;;5116347;28;20043;-76
2023/08/29 07:42:43;;;;;;;4.65;2.10;;;20.30;94.40;;;;;;5116169;28;20046;-76
2023/08/29 07:45:09;;;;;;;6.75;2.80;;;20.40;94.50;;;;;;5116372;28;20036;-76
2023/08/29 07:47:35;;;;;;;9.63;2.90;;;20.40;94.50;;;;;;5116364;28;20036;-76
2023/08/29 07:50:01;;;;;;;5.45;2.65;;;20.40;94.40;;;;;;5115989;28;20035;-76
2023/08/29 07:52:26;;;;;;;6.18;2.45;;;20.40;94.50;;;;;;5097897;28;20032;-76
2023/08/29 07:54:52;;;;;;;5.90;2.42;;;20.40;94.40;;;;;;5116015;28;20024;-76
2023/08/29 07:57:18;;;;;;;6.63;2.10;;;20.50;94.40;;;;;;5115172;28;20039;-76
2023/08/29 07:59:43;;;;;;;4.70;2.50;;;20.50;94.20;;;;;;5097327;28;20028;-77
2023/08/29 08:02:09;;;;;;;8.45;3.20;;;20.50;94.10;;;;;;5115831;28;20193;-76
2023/08/29 08:04:35;;;;;;;7.63;2.30;;;20.60;94.10;;;;;;5115910;28;20028;-77
2023/08/29 08:07:01;;;;;;;7.40;2.72;;;20.60;94.10;;;;;;5097684;28;20502;-77
2023/08/29 08:09:26;;;;;;;5.75;2.10;;;20.60;94.10;;;;;;5115892;28;20028;-77
2023/08/29 08:11:52;;;;;;;7.43;2.45;;;20.60;94.10;;;;;;5115932;28;20036;-77
2023/08/29 08:14:19;;;;;;;5.07;2.33;;;20.60;94.00;;;;;;5115826;28;20063;-76
2023/08/29 08:16:44;;;;;;;10.52;2.42;;;20.70;94.00;;;;;;5097405;28;20027;-76
2023/08/29 08:19:10;;;;;;;5.57;2.53;;;20.70;93.90;;;;;;5115509;28;20127;-76
2023/08/29 08:21:36;;;;;;;6.60;2.53;;;20.70;94.10;;;;;;5115516;28;20039;-77
2023/08/29 08:24:03;;;;;;;18.67;3.22;;;20.70;94.20;;;;;;5097062;28;20114;-77
2023/08/29 08:26:28;;;;;;;14.00;2.50;;;20.70;94.50;;;;;;5115530;28;20055;-77
2023/08/29 08:28:54;;;;;;;8.38;2.50;;;20.80;94.60;;;;;;5115353;28;20035;-77
2023/08/29 08:31:21;;;;;;;5.65;2.30;;;20.80;94.60;;;;;;5115483;28;20028;-77
2023/08/29 08:33:46;;;;;;;11.07;3.42;;;20.80;95.00;;;;;;5115299;28;20032;-76
2023/08/29 08:36:12;;;;;;;9.43;3.08;;;20.80;94.80;;;;;;5114769;28;20027;-77
2023/08/29 08:38:38;;;;;;;13.45;3.20;;;20.80;94.90;;;;;;5096256;28;20039;-76
2023/08/29 08:41:04;;;;;;;11.27;2.70;;;20.90;95.30;;;;;;5115063;28;20100;-77
2023/08/29 08:43:31;;;;;;;5.82;2.42;;;20.90;95.30;;;;;;5114840;28;20046;-77
2023/08/29 08:45:58;;;;;;;10.88;3.15;;;21.00;95.40;;;;;;5096651;28;20056;-77
2023/08/29 08:48:25;;;;;;;13.60;2.83;;;21.00;95.50;;;;;;5114883;28;20114;-77
2023/08/29 08:50:51;;;;;;;10.98;3.40;;;21.00;95.60;;;;;;5114607;28;20028;-77
2023/08/29 08:53:20;;;;;;;12.13;3.65;;;21.00;95.40;;;;;;5114419;28;20395;-77
2023/08/29 08:55:47;;;;;;;9.93;2.50;;;21.10;95.70;;;;;;5096193;28;20475;-76
2023/08/29 08:58:13;;;;;;;7.00;2.85;;;21.10;95.50;;;;;;5114671;28;20032;-76
2023/08/29 09:00:39;;;;;;;7.68;2.67;;;21.10;95.00;;;;;;5114432;28;20038;-77
2023/08/29 09:03:05;;;;;;;9.13;2.55;;;21.10;94.70;;;;;;5114270;28;20032;-76
2023/08/29 09:05:31;;;;;;;8.73;2.97;;;21.20;94.40;;;;;;5114309;28;20051;-77
2023/08/29 09:07:56;;;;;;;9.13;3.00;;;21.20;94.30;;;;;;5114495;28;20514;-76
2023/08/29 09:10:23;;;;;;;5.32;2.78;;;21.20;94.30;;;;;;5114415;28;20032;-77
2023/08/29 09:12:51;;;;;;;4.78;2.60;;;21.30;94.00;;;;;;5114365;28;20079;-77
2023/08/29 09:15:19;;;;;;;7.57;3.25;;;21.30;93.80;;;;;;5114065;28;20046;-77
2023/08/29 09:17:51;;;;;;;10.25;3.75;;;21.40;93.70;;;;;;5096369;28;20112;-77
2023/08/29 09:20:17;;;;;;;5.88;2.70;;;21.30;93.70;;;;;;5114244;28;20391;-76
2023/08/29 09:22:44;;;;;;;11.40;3.40;;;21.40;93.70;;;;;;5114347;28;20050;-76
2023/08/29 09:25:11;;;;;;;8.10;2.92;;;21.40;93.80;;;;;;5114254;28;20034;-76
2023/08/29 09:27:41;;;;;;;5.40;2.00;;;21.40;94.10;;;;;;5113858;28;20034;-77
2023/08/29 09:30:12;;;;;;;4.15;1.63;;;21.40;94.30;;;;;;5095624;28;20132;-76
2023/08/29 09:32:45;;;;;;;3.30;1.73;;;21.40;94.00;;;;;;5114172;28;20178;-76
2023/08/29 09:35:12;;;;;;;3.42;1.40;;;21.40;93.60;;;;;;5114020;28;20031;-76
2023/08/29 09:37:45;;;;;;;2.35;1.17;;;21.40;93.40;;;;;;5114087;28;20040;-76
2023/08/29 09:40:14;;;;;;;2.42;1.20;;;21.40;93.30;;;;;;5113822;28;20048;-76
2023/08/29 09:42:40;;;;;;;2.58;1.42;;;21.30;93.30;;;;;;5113763;28;20047;-77
2023/08/29 09:45:09;;;;;;;3.40;1.35;;;21.30;93.40;;;;;;5113505;28;20040;-76
2023/08/29 09:47:35;;;;;;;2.90;1.30;;;21.30;93.30;;;;;;5113966;28;20040;-75
2023/08/29 09:50:01;;;;;;;3.78;1.50;;;21.30;93.20;;;;;;5113929;28;20036;-76
2023/08/29 09:52:28;;;;;;;5.13;1.33;;;21.30;93.10;;;;;;5113596;28;20032;-76
2023/08/29 09:54:56;;;;;;;3.95;1.40;;;21.30;92.90;;;;;;5113483;28;20023;-75
2023/08/29 09:57:24;;;;;;;5.72;1.85;;;21.40;92.90;;;;;;5113848;28;20494;-76
2023/08/29 09:59:57;;;;;;;3.92;1.65;;;21.40;93.00;;;;;;5113715;28;20049;-75
2023/08/29 10:02:24;;;;;;;2.95;1.40;;;21.50;92.80;;;;;;5113378;28;20044;-75
2023/08/29 10:05:19;;;;;;;2.47;1.40;;;21.60;92.70;;;;;;5113299;28;20032;-75
2023/08/29 10:07:46;;;;;;;2.60;1.35;;;21.70;92.60;;;;;;5111659;28;20032;-75
2023/08/29 10:10:12;;;;;;;3.58;1.27;;;21.70;92.30;;;;;;5094921;28;20459;-75
2023/08/29 10:12:39;;;;;;;2.95;1.42;;;21.80;92.10;;;;;;5113286;28;20020;-76
2023/08/29 10:15:06;;;;;;;3.08;1.40;;;21.80;92.10;;;;;;5112925;28;20040;-76
2023/08/29 10:17:36;;;;;;;3.53;1.40;;;21.90;92.10;;;;;;5112851;28;20067;-76
2023/08/29 10:20:08;;;;;;;3.40;1.70;;;22.00;92.20;;;;;;5113202;28;20031;-75
2023/08/29 10:22:36;;;;;;;3.95;1.50;;;22.10;91.80;;;;;;5112477;28;20035;-75
2023/08/29 10:25:03;;;;;;;2.85;1.27;;;22.20;91.80;;;;;;5112871;28;20055;-76
2023/08/29 10:27:30;;;;;;;2.65;1.40;;;22.20;91.60;;;;;;5113096;28;20039;-75
2023/08/29 10:30:00;;;;;;;4.00;1.77;;;22.30;91.60;;;;;;5111925;28;20042;-76
2023/08/29 10:32:27;;;;;;;4.05;1.70;;;22.30;91.30;;;;;;5094414;28;20585;-76
2023/08/29 10:34:53;;;;;;;3.63;1.40;;;22.40;91.30;;;;;;5093161;28;20089;-76
2023/08/29 10:37:20;;;;;;;3.63;1.48;;;22.50;91.10;;;;;;5112990;28;20039;-76
2023/08/29 10:39:50;;;;;;;2.97;1.52;;;22.50;91.00;;;;;;5112868;28;20467;-76
2023/08/29 10:42:16;;;;;;;2.60;1.30;;;22.50;90.70;;;;;;5112953;28;20395;-76
2023/08/29 10:44:46;;;;;;;3.88;1.50;;;22.50;90.50;;;;;;5113143;28;20106;-76
2023/08/29 10:47:31;;;;;;;4.22;1.58;;;22.50;90.50;;;;;;5112937;28;20084;-76
2023/08/29 10:50:07;;;;;;;3.38;1.45;;;22.50;90.40;;;;;;5113007;28;20024;-76
2023/08/29 10:52:41;;;;;;;2.20;1.25;;;22.40;90.40;;;;;;5113094;28;20129;-76
2023/08/29 10:55:27;;;;;;;2.90;1.60;;;22.40;90.70;;;;;;5113018;28;20414;-75
2023/08/29 10:57:58;;;;;;;5.60;1.42;;;22.30;90.70;;;;;;5112864;28;20032;-75
2023/08/29 11:00:42;;;;;;;3.85;1.58;;;22.30;90.70;;;;;;5113037;28;20069;-75
2023/08/29 11:03:08;;;;;;;4.07;1.40;;;22.30;90.90;;;;;;5112928;28;20039;-76
2023/08/29 11:05:40;;;;;;;2.70;1.45;;;22.20;90.60;;;;;;5112695;28;20508;-75
2023/08/29 11:08:32;;;;;;;3.55;1.60;;;22.20;90.50;;;;;;5112674;28;20040;-75
2023/08/29 11:11:13;;;;;;;4.03;1.50;;;22.20;90.70;;;;;;5110623;28;20088;-74
2023/08/29 11:14:01;;;;;;;5.15;1.60;;;22.10;90.70;;;;;;5113006;28;20035;-75
2023/08/29 11:16:28;;;;;;;5.70;1.70;;;22.10;91.10;;;;;;5094730;28;20031;-75
2023/08/29 11:19:14;;;;;;;5.97;1.65;;;22.10;91.50;;;;;;5112635;28;20032;-75
2023/08/29 11:21:42;;;;;;;3.80;1.52;;;22.00;91.80;;;;;;5112699;28;20392;-74
2023/08/29 11:24:10;;;;;;;6.05;2.03;;;22.00;91.80;;;;;;5111776;28;20059;-74
2023/08/29 11:26:39;;;;;;;3.00;1.67;;;22.00;91.90;;;;;;5112562;28;20519;-75
2023/08/29 11:29:05;;;;;;;3.00;1.98;;;22.00;92.10;;;;;;5112031;28;20492;-77
2023/08/29 11:31:32;;;;;;;4.20;1.85;;;22.00;92.30;;;;;;5109883;28;20076;-75
2023/08/29 11:33:58;;;;;;;3.72;1.90;;;21.90;92.60;;;;;;5113847;28;20056;-74
2023/08/29 11:36:32;;;;;;;3.67;2.08;;;21.90;93.00;;;;;;5115110;28;20036;-75
2023/08/29 11:38:58;;;;;;;5.97;1.85;;;21.90;93.40;;;;;;5115752;28;20073;-75
2023/08/29 11:41:28;;;;;;;3.40;1.73;;;21.90;93.50;;;;;;5116105;28;20040;-75
2023/08/29 11:43:57;;;;;;;7.07;2.30;;;21.90;93.70;;;;;;5116024;28;20043;-79
2023/08/29 11:46:22;;;;;;;6.43;1.95;;;21.90;93.80;;;;;;5116274;28;20024;-80
2023/08/29 11:48:48;;;;;;;5.10;1.98;;;21.90;93.80;;;;;;5116201;28;20043;-82
2023/08/29 11:51:15;;;;;;;5.00;1.65;;;21.80;93.60;;;;;;5116016;28;20027;-76
2023/08/29 11:53:41;;;;;;;5.25;1.75;;;21.80;93.60;;;;;;5115895;28;20444;-77
2023/08/29 11:56:10;;;;;;;5.45;1.77;;;21.70;93.50;;;;;;5116101;28;20032;-75
2023/08/29 11:58:38;;;;;;;5.28;1.65;;;21.70;93.20;;;;;;5115359;28;20028;-75
2023/08/29 12:01:04;;;;;;;5.70;1.60;;;21.60;93.00;;;;;;5115349;28;20040;-75
2023/08/29 12:03:34;;;;;;;10.13;1.77;;;21.60;93.00;;;;;;5115527;28;20050;-75
2023/08/29 12:06:00;;;;;;;1.75;1.02;;;21.50;93.00;;;;;;5115263;28;20105;-75
2023/08/29 12:08:43;;;;;;;4.57;1.20;;;21.50;92.90;;;;;;5115680;28;20039;-75
2023/08/29 12:11:12;;;;;;;5.63;1.67;;;21.40;92.90;;;;;;5115557;28;20035;-75
2023/08/29 12:13:40;;;;;;;6.90;1.67;;;21.30;92.90;;;;;;5115505;28;20032;-76
2023/08/29 12:16:16;;;;;;;5.07;1.67;;;21.20;93.20;;;;;;5096712;28;20028;-74
2023/08/29 12:18:43;;;;;;;2.97;1.40;;;21.20;93.50;;;;;;5115506;28;20032;-74
2023/08/29 12:21:17;;;;;;;5.30;1.60;;;21.20;93.60;;;;;;5115309;28;20032;-74
2023/08/29 12:23:43;;;;;;;3.33;1.30;;;21.10;93.70;;;;;;5096706;28;20478;-74
2023/08/29 12:26:11;;;;;;;2.55;1.40;;;21.10;93.90;;;;;;5115126;28;20034;-74
2023/08/29 12:28:37;;;;;;;10.25;1.58;;;21.10;94.00;;;;;;5115165;28;20034;-75
2023/08/29 12:31:03;;;;;;;7.05;1.92;;;21.10;93.90;;;;;;5114862;28;20158;-75
2023/08/29 12:33:29;;;;;;;7.25;1.95;;;21.10;94.10;;;;;;5115387;28;20110;-75
2023/08/29 12:35:56;;;;;;;7.15;1.90;;;21.10;94.20;;;;;;5115066;28;20023;-75
2023/08/29 12:38:23;;;;;;;6.57;1.90;;;21.10;94.20;;;;;;5114473;28;20036;-74
2023/08/29 12:40:49;;;;;;;5.85;2.28;;;21.10;94.40;;;;;;5096297;28;21080;-74
2023/08/29 12:43:17;;;;;;;5.53;2.13;;;21.10;94.40;;;;;;5114552;28;20055;-74
2023/08/29 12:45:43;;;;;;;6.57;2.28;;;21.10;94.60;;;;;;5114382;28;20543;-74